createdAt,value
2022-09-30T00:00:56.995Z,75455.41
2022-09-30T00:03:24.411Z,75457.34
2022-09-30T00:06:07.862Z,75453.50
2022-09-30T00:08:36.782Z,75451.56
2022-09-30T00:11:08.742Z,75445.78
2022-09-30T00:13:38.656Z,75445.78
2022-09-30T00:16:06.376Z,75445.78
2022-09-30T00:18:33.664Z,75445.78
2022-09-30T00:21:02.010Z,75445.78
2022-09-30T00:23:28.955Z,75438.09
2022-09-30T00:26:00.268Z,75430.38
2022-09-30T00:28:27.890Z,75434.22
2022-09-30T00:30:58.268Z,75428.44
2022-09-30T00:33:24.938Z,75420.75
2022-09-30T00:35:51.601Z,75426.53
2022-09-30T00:38:18.262Z,75426.53
2022-09-30T00:40:45.986Z,75430.38
2022-09-30T00:43:39.262Z,75430.38
2022-09-30T00:46:06.353Z,75430.38
2022-09-30T00:48:39.462Z,75434.22
2022-09-30T00:51:07.863Z,75434.22
2022-09-30T00:53:52.683Z,75434.22
2022-09-30T00:56:25.263Z,75438.09
2022-09-30T00:59:01.383Z,75438.09
2022-09-30T01:01:28.186Z,75434.22
2022-09-30T01:03:58.418Z,75434.22
2022-09-30T01:06:25.594Z,75436.16
2022-09-30T01:08:53.100Z,75430.38
2022-09-30T01:11:19.858Z,75424.59
2022-09-30T01:13:53.973Z,75430.38
2022-09-30T01:16:56.873Z,75428.44
2022-09-30T01:19:27.080Z,75432.31
2022-09-30T01:22:15.151Z,75436.16
2022-09-30T01:25:15.978Z,75434.22
2022-09-30T01:28:07.069Z,75430.38
2022-09-30T01:31:04.316Z,75430.38
2022-09-30T01:33:33.883Z,75430.38
2022-09-30T01:36:41.859Z,75430.38
2022-09-30T01:39:26.645Z,75426.53
2022-09-30T01:42:06.611Z,75426.53
2022-09-30T01:45:03.985Z,75426.53
2022-09-30T01:47:43.332Z,75422.66
2022-09-30T01:50:14.812Z,75424.59
2022-09-30T01:52:46.639Z,75428.44
2022-09-30T01:55:27.273Z,75426.53
2022-09-30T01:58:13.278Z,75422.66
2022-09-30T02:00:43.415Z,75420.75
2022-09-30T02:03:17.829Z,75418.81
2022-09-30T02:06:02.388Z,75430.38
2022-09-30T02:08:38.141Z,75426.53
2022-09-30T02:11:18.343Z,75416.91
2022-09-30T02:13:53.851Z,75418.81
2022-09-30T02:16:26.191Z,75418.81
2022-09-30T02:19:00.242Z,75418.81
2022-09-30T02:21:34.458Z,75418.81
2022-09-30T02:24:07.082Z,75416.91
2022-09-30T02:26:41.165Z,75411.13
2022-09-30T02:29:13.964Z,75407.25
2022-09-30T02:31:44.099Z,75411.13
2022-09-30T02:34:30.456Z,75414.97
2022-09-30T02:37:03.422Z,75418.81
2022-09-30T02:39:50.426Z,75422.66
2022-09-30T02:42:23.513Z,75420.75
2022-09-30T02:44:53.040Z,75416.91
2022-09-30T02:47:29.083Z,75416.91
2022-09-30T02:50:04.799Z,75418.81
2022-09-30T02:52:49.360Z,75426.53
2022-09-30T02:55:40.312Z,75424.59
2022-09-30T02:58:26.175Z,75426.53
2022-09-30T03:00:54.793Z,75422.66
2022-09-30T03:03:32.585Z,75422.66
2022-09-30T03:05:59.519Z,75416.91
2022-09-30T03:08:26.900Z,75422.66
2022-09-30T03:10:53.593Z,75422.66
2022-09-30T03:14:07.786Z,75422.66
2022-09-30T03:16:34.404Z,75426.53
2022-09-30T03:19:07.109Z,75432.31
2022-09-30T03:21:59.528Z,75430.38
2022-09-30T03:24:44.215Z,75432.31
2022-09-30T03:27:19.964Z,75434.22
2022-09-30T03:29:55.607Z,75430.38
2022-09-30T03:32:54.353Z,75438.09
2022-09-30T03:35:33.259Z,75445.78
2022-09-30T03:38:12.727Z,75449.63
2022-09-30T03:40:51.446Z,75455.41
2022-09-30T03:43:25.798Z,75457.34
2022-09-30T03:46:02.368Z,75457.34
2022-09-30T03:48:32.174Z,75468.91
2022-09-30T03:51:00.467Z,75472.75
2022-09-30T03:53:28.535Z,75465.06
2022-09-30T03:55:55.316Z,75470.81
2022-09-30T03:58:26.931Z,75476.59
2022-09-30T04:00:54.457Z,75476.59
2022-09-30T04:03:22.963Z,75484.31
2022-09-30T04:05:50.118Z,75492.03
2022-09-30T04:08:17.233Z,75480.47
2022-09-30T04:10:44.354Z,75488.16
2022-09-30T04:13:11.841Z,75488.16
2022-09-30T04:15:39.167Z,75495.88
2022-09-30T04:18:06.336Z,75492.03
2022-09-30T04:20:33.005Z,75503.59
2022-09-30T04:23:02.986Z,75503.59
2022-09-30T04:25:29.708Z,75517.06
2022-09-30T04:27:56.641Z,75519.00
2022-09-30T04:30:26.360Z,75536.31
2022-09-30T04:32:54.986Z,75540.19
2022-09-30T04:35:21.757Z,75555.59
2022-09-30T04:37:48.609Z,75559.44
2022-09-30T04:40:16.606Z,75567.16
2022-09-30T04:42:44.007Z,75569.06
2022-09-30T04:45:12.468Z,75574.84
2022-09-30T04:47:42.834Z,75584.50
2022-09-30T04:50:09.840Z,75582.56
2022-09-30T04:52:38.361Z,75578.72
2022-09-30T04:55:05.653Z,75588.34
2022-09-30T04:57:32.325Z,75596.03
2022-09-30T04:59:58.964Z,75588.34
2022-09-30T05:02:25.653Z,75592.19
2022-09-30T05:04:52.320Z,75592.19
2022-09-30T05:07:19.076Z,75588.34
2022-09-30T05:09:45.998Z,75580.63
2022-09-30T05:12:12.652Z,75590.28
2022-09-30T05:14:39.328Z,75580.63
2022-09-30T05:17:06.024Z,75599.91
2022-09-30T05:19:32.949Z,75599.91
2022-09-30T05:21:59.569Z,75619.16
2022-09-30T05:24:26.303Z,75621.09
2022-09-30T05:26:52.908Z,75628.78
2022-09-30T05:29:19.615Z,75624.94
2022-09-30T05:31:46.361Z,75626.88
2022-09-30T05:34:16.681Z,75638.44
2022-09-30T05:36:44.126Z,75611.47
2022-09-30T05:39:11.721Z,75617.25
2022-09-30T05:41:38.463Z,75623.03
2022-09-30T05:44:05.397Z,75634.56
2022-09-30T05:46:32.139Z,75650.00
2022-09-30T05:48:58.917Z,75650.00
2022-09-30T05:51:25.563Z,75642.28
2022-09-30T05:53:52.260Z,75661.56
2022-09-30T05:56:19.110Z,75665.41
2022-09-30T05:58:47.206Z,75676.97
2022-09-30T06:01:15.589Z,75676.97
2022-09-30T06:03:46.801Z,75673.09
2022-09-30T06:06:15.753Z,75667.31
2022-09-30T06:08:43.761Z,75675.03
2022-09-30T06:11:16.815Z,75676.97
2022-09-30T06:13:44.759Z,75669.25
2022-09-30T06:16:12.686Z,75682.75
2022-09-30T06:18:41.453Z,75680.81
2022-09-30T06:21:11.390Z,75684.66
2022-09-30T06:23:38.418Z,75684.66
2022-09-30T06:26:06.939Z,75682.75
2022-09-30T06:28:35.359Z,75684.66
2022-09-30T06:31:03.559Z,75690.44
2022-09-30T06:33:31.995Z,75680.81
2022-09-30T06:35:59.281Z,75684.66
2022-09-30T06:38:27.406Z,75682.75
2022-09-30T06:40:54.228Z,75680.81
2022-09-30T06:43:21.028Z,75682.75
2022-09-30T06:45:51.838Z,75675.03
2022-09-30T06:48:28.749Z,75675.03
2022-09-30T06:51:02.324Z,75682.75
2022-09-30T06:53:29.681Z,75669.25
2022-09-30T06:55:57.723Z,75661.56
2022-09-30T06:58:24.866Z,75661.56
2022-09-30T07:01:03.732Z,75661.56
2022-09-30T07:03:33.344Z,75663.47
2022-09-30T07:06:02.838Z,75657.69
2022-09-30T07:08:32.567Z,75659.63
2022-09-30T07:11:04.668Z,75659.63
2022-09-30T07:13:33.144Z,75659.63
2022-09-30T07:15:59.852Z,75655.78
2022-09-30T07:18:27.319Z,75651.91
2022-09-30T07:20:55.698Z,75659.63
2022-09-30T07:23:27.208Z,75650.00
2022-09-30T07:25:56.925Z,75661.56
2022-09-30T07:28:31.575Z,75669.25
2022-09-30T07:31:13.787Z,75661.56
2022-09-30T07:33:46.903Z,75665.41
2022-09-30T07:36:18.537Z,75661.56
2022-09-30T07:38:49.916Z,75650.00
2022-09-30T07:41:21.953Z,75659.63
2022-09-30T07:43:48.733Z,75653.84
2022-09-30T07:46:25.165Z,75651.91
2022-09-30T07:48:56.544Z,75648.06
2022-09-30T07:51:34.409Z,75657.69
2022-09-30T07:54:06.174Z,75669.25
2022-09-30T07:56:51.196Z,75671.19
2022-09-30T07:59:21.632Z,75675.03
2022-09-30T08:01:49.051Z,75661.56
2022-09-30T08:04:18.565Z,75671.19
2022-09-30T08:06:50.661Z,75663.47
2022-09-30T08:09:19.858Z,75650.00
2022-09-30T08:11:46.623Z,75651.91
2022-09-30T08:14:15.225Z,75661.56
2022-09-30T08:16:42.889Z,75650.00
2022-09-30T08:19:14.219Z,75653.84
2022-09-30T08:21:40.966Z,75644.22
2022-09-30T08:24:07.653Z,75642.28
2022-09-30T08:26:34.767Z,75646.13
2022-09-30T08:29:01.555Z,75650.00
2022-09-30T08:31:29.525Z,75653.84
2022-09-30T08:33:56.549Z,75661.56
2022-09-30T08:36:25.588Z,75676.97
2022-09-30T08:38:52.689Z,75675.03
2022-09-30T08:41:28.456Z,75680.81
2022-09-30T08:43:58.197Z,75688.53
2022-09-30T08:46:41.636Z,75705.84
2022-09-30T08:49:27.117Z,75715.50
2022-09-30T08:51:54.983Z,75696.22
2022-09-30T08:54:26.039Z,75711.63
2022-09-30T08:56:53.751Z,75694.31
2022-09-30T08:59:23.456Z,75680.81
2022-09-30T09:02:00.983Z,75696.22
2022-09-30T09:04:28.160Z,75669.25
2022-09-30T09:07:23.950Z,75650.00
2022-09-30T09:10:05.805Z,75619.16
2022-09-30T09:12:35.422Z,75650.00
2022-09-30T09:15:31.785Z,75617.25
2022-09-30T09:18:22.066Z,75617.25
2022-09-30T09:20:51.378Z,75613.38
2022-09-30T09:23:18.037Z,75592.19
2022-09-30T09:25:46.401Z,75576.78
2022-09-30T09:28:26.131Z,75584.50
2022-09-30T09:30:58.851Z,75572.94
2022-09-30T09:33:29.981Z,75565.22
2022-09-30T09:36:02.683Z,75540.19
2022-09-30T09:38:41.659Z,75511.28
2022-09-30T09:41:39.260Z,75557.53
2022-09-30T09:44:31.973Z,75522.84
2022-09-30T09:47:05.590Z,75522.84
2022-09-30T09:49:35.046Z,75544.03
2022-09-30T09:52:22.110Z,75522.84
2022-09-30T09:54:52.620Z,75534.41
2022-09-30T09:57:32.269Z,75553.66
2022-09-30T10:01:01.074Z,75542.09
2022-09-30T10:03:28.499Z,75542.09
2022-09-30T10:06:04.203Z,75538.25
2022-09-30T10:08:33.769Z,75545.97
2022-09-30T10:11:18.080Z,75544.03
2022-09-30T10:13:45.890Z,75571.00
2022-09-30T10:16:36.690Z,75576.78
2022-09-30T10:19:17.233Z,75594.13
2022-09-30T10:21:43.969Z,75613.38
2022-09-30T10:24:30.750Z,75642.28
2022-09-30T10:26:57.987Z,75617.25
2022-09-30T10:29:33.131Z,75623.03
2022-09-30T10:32:02.472Z,75592.19
2022-09-30T10:34:36.935Z,75611.47
2022-09-30T10:37:10.629Z,75574.84
2022-09-30T10:39:43.193Z,75561.38
2022-09-30T10:42:23.651Z,75530.56
2022-09-30T10:44:56.582Z,75553.66
2022-09-30T10:47:29.287Z,75544.03
2022-09-30T10:50:12.797Z,75561.38
2022-09-30T10:52:47.325Z,75582.56
2022-09-30T10:55:35.329Z,75574.84
2022-09-30T10:58:30.411Z,75557.53
2022-09-30T11:01:12.419Z,75576.78
2022-09-30T11:03:48.368Z,75596.03
2022-09-30T11:06:15.517Z,75596.03
2022-09-30T11:08:58.153Z,75576.78
2022-09-30T11:11:29.556Z,75569.06
2022-09-30T11:14:22.072Z,75582.56
2022-09-30T11:17:05.433Z,75588.34
2022-09-30T11:19:50.135Z,75576.78
2022-09-30T11:22:22.882Z,75578.72
2022-09-30T11:24:52.669Z,75567.16
2022-09-30T11:27:39.209Z,75549.81
2022-09-30T11:33:45.597Z,75511.28
2022-09-30T11:36:31.578Z,75517.06
2022-09-30T11:39:21.391Z,75551.75
2022-09-30T11:41:58.222Z,75596.03
2022-09-30T11:44:41.725Z,75590.28
2022-09-30T11:47:26.965Z,75590.28
2022-09-30T11:49:59.114Z,75609.53
2022-09-30T11:52:25.835Z,75592.19
2022-09-30T11:55:20.024Z,75565.22
2022-09-30T11:57:58.506Z,75507.44
2022-09-30T12:00:25.277Z,75488.16
2022-09-30T12:02:59.073Z,75438.09
2022-09-30T12:05:36.096Z,75515.13
2022-09-30T12:08:05.126Z,75461.19
2022-09-30T12:10:36.115Z,75459.28
2022-09-30T12:13:20.748Z,75455.41
2022-09-30T12:15:49.794Z,75480.47
2022-09-30T12:18:27.544Z,75480.47
2022-09-30T12:20:59.599Z,75465.06
2022-09-30T12:23:46.293Z,75468.91
2022-09-30T12:26:15.232Z,75476.59
2022-09-30T12:29:04.423Z,75449.63
2022-09-30T12:32:11.750Z,75413.03
2022-09-30T12:35:36.505Z,75413.03
2022-09-30T12:38:25.820Z,75447.72
2022-09-30T12:41:07.738Z,75424.59
2022-09-30T12:44:06.410Z,75434.22
2022-09-30T12:46:48.751Z,75411.13
2022-09-30T12:49:20.130Z,75341.75
2022-09-30T12:51:51.192Z,75339.84
2022-09-30T12:54:41.992Z,75388.00
2022-09-30T12:57:09.822Z,75370.66
2022-09-30T12:59:39.514Z,75351.41
2022-09-30T13:02:08.129Z,75376.44
2022-09-30T13:04:42.944Z,75380.28
2022-09-30T13:07:18.410Z,75334.06
2022-09-30T13:10:22.178Z,75322.50
2022-09-30T13:12:52.746Z,75324.44
2022-09-30T13:15:28.780Z,75330.19
2022-09-30T13:18:22.432Z,75357.16
2022-09-30T13:20:56.851Z,75324.44
2022-09-30T13:23:40.337Z,75345.63
2022-09-30T13:26:33.244Z,75332.13
2022-09-30T13:29:00.186Z,75337.91
2022-09-30T13:31:50.168Z,75305.16
2022-09-30T13:34:33.331Z,75295.53
2022-09-30T13:37:02.314Z,75291.69
2022-09-30T13:39:45.926Z,75245.44
2022-09-30T13:42:25.193Z,75257.00
2022-09-30T13:45:16.349Z,75264.72
2022-09-30T13:47:49.508Z,75291.69
2022-09-30T13:50:26.123Z,75276.28
2022-09-30T13:53:01.112Z,75303.25
2022-09-30T13:55:42.435Z,75299.38
2022-09-30T13:58:22.569Z,75303.25
2022-09-30T14:01:27.717Z,75337.91
2022-09-30T14:04:45.938Z,75347.53
2022-09-30T14:07:37.341Z,75337.91
2022-09-30T14:10:15.995Z,75330.19
2022-09-30T14:13:19.991Z,75380.28
2022-09-30T14:16:15.476Z,75368.72
2022-09-30T14:18:55.082Z,75349.47
2022-09-30T14:21:43.353Z,75337.91
2022-09-30T14:24:11.823Z,75324.44
2022-09-30T14:26:50.169Z,75301.31
2022-09-30T14:29:39.259Z,75276.28
2022-09-30T14:32:20.178Z,75283.97
2022-09-30T14:34:48.469Z,75295.53
2022-09-30T14:37:23.622Z,75301.31
2022-09-30T14:39:53.076Z,75303.25
2022-09-30T14:42:41.468Z,75303.25
2022-09-30T14:45:09.492Z,75314.78
2022-09-30T14:47:48.100Z,75334.06
2022-09-30T14:50:20.167Z,75322.50
2022-09-30T14:52:48.721Z,75318.66
2022-09-30T14:55:28.756Z,75337.91
2022-09-30T14:58:23.355Z,75362.94
2022-09-30T15:01:08.360Z,75361.03
2022-09-30T15:03:48.582Z,75362.94
2022-09-30T15:06:46.947Z,75372.59
2022-09-30T15:09:18.721Z,75376.44
2022-09-30T15:11:46.086Z,75374.50
2022-09-30T15:14:18.602Z,75380.28
2022-09-30T15:16:51.079Z,75391.84
2022-09-30T15:19:28.086Z,75399.56
2022-09-30T15:22:09.694Z,75413.03
2022-09-30T15:24:44.673Z,75430.38
2022-09-30T15:27:37.061Z,75443.88
2022-09-30T15:30:24.230Z,75466.97
2022-09-30T15:33:37.977Z,75468.91
2022-09-30T15:36:10.233Z,75480.47
2022-09-30T15:38:39.537Z,75497.81
2022-09-30T15:41:21.157Z,75499.72
2022-09-30T15:44:03.532Z,75507.44
2022-09-30T15:46:40.542Z,75517.06
2022-09-30T15:49:51.322Z,75526.69
2022-09-30T15:52:32.989Z,75542.09
2022-09-30T15:55:03.087Z,75545.97
2022-09-30T15:57:40.223Z,75551.75
2022-09-30T16:00:32.081Z,75561.38
2022-09-30T16:03:41.319Z,75569.06
2022-09-30T16:06:25.572Z,75576.78
2022-09-30T16:09:24.437Z,75582.56
2022-09-30T16:12:37.759Z,75596.03
2022-09-30T16:18:40.124Z,75599.91
2022-09-30T16:21:10.045Z,75605.69
2022-09-30T16:23:40.236Z,75617.25
2022-09-30T16:26:22.162Z,75623.03
2022-09-30T16:28:51.748Z,75626.88
2022-09-30T16:31:18.581Z,75634.56
2022-09-30T16:33:45.883Z,75640.34
2022-09-30T16:36:14.680Z,75642.28
2022-09-30T16:38:42.419Z,75634.56
2022-09-30T16:41:13.375Z,75644.22
2022-09-30T16:43:40.510Z,75653.84
2022-09-30T16:46:09.026Z,75657.69
2022-09-30T16:48:36.275Z,75655.78
2022-09-30T16:51:12.269Z,75663.47
2022-09-30T16:53:39.053Z,75665.41
2022-09-30T16:56:06.086Z,75665.41
2022-09-30T16:58:32.863Z,75669.25
2022-09-30T17:01:00.520Z,75673.09
2022-09-30T17:03:28.139Z,75680.81
2022-09-30T17:05:55.026Z,75671.19
2022-09-30T17:08:24.089Z,75667.31
2022-09-30T17:10:51.238Z,75669.25
2022-09-30T17:13:18.787Z,75661.56
2022-09-30T17:15:51.865Z,75669.25
2022-09-30T17:18:19.265Z,75673.09
2022-09-30T17:20:52.631Z,75678.88
2022-09-30T17:23:21.191Z,75684.66
2022-09-30T17:25:48.476Z,75684.66
2022-09-30T17:28:16.116Z,75688.53
2022-09-30T17:30:48.014Z,75703.94
2022-09-30T17:33:15.467Z,75711.63
2022-09-30T17:35:42.270Z,75719.34
2022-09-30T17:38:10.901Z,75715.50
2022-09-30T17:40:56.621Z,75715.50
2022-09-30T17:43:23.903Z,75723.19
2022-09-30T17:45:52.155Z,75723.19
2022-09-30T17:48:19.138Z,75727.06
2022-09-30T17:50:48.016Z,75734.75
2022-09-30T17:53:19.626Z,75734.75
2022-09-30T17:55:59.918Z,75738.63
2022-09-30T17:58:26.663Z,75738.63
2022-09-30T18:00:53.392Z,75736.69
2022-09-30T18:03:20.033Z,75738.63
2022-09-30T18:05:46.674Z,75742.47
2022-09-30T18:08:13.409Z,75750.16
2022-09-30T18:10:40.454Z,75750.16
2022-09-30T18:13:07.123Z,75746.31
2022-09-30T18:15:33.808Z,75750.16
2022-09-30T18:18:00.554Z,75754.03
2022-09-30T18:20:27.341Z,75761.72
2022-09-30T18:22:54.045Z,75767.50
2022-09-30T18:25:20.728Z,75773.28
2022-09-30T18:27:58.668Z,75773.28
2022-09-30T18:30:26.353Z,75781.00
2022-09-30T18:32:54.244Z,75777.13
2022-09-30T18:35:24.388Z,75775.22
2022-09-30T18:37:53.103Z,75779.06
2022-09-30T18:40:22.635Z,75769.44
2022-09-30T18:42:56.309Z,75773.28
2022-09-30T18:45:24.312Z,75771.38
2022-09-30T18:47:57.360Z,75777.13
2022-09-30T18:50:25.764Z,75779.06
2022-09-30T18:52:53.164Z,75784.84
2022-09-30T18:55:20.806Z,75788.69
2022-09-30T18:57:50.599Z,75788.69
2022-09-30T19:00:18.141Z,75782.91
2022-09-30T19:02:45.075Z,75781.00
2022-09-30T19:05:13.535Z,75777.13
2022-09-30T19:07:40.620Z,75792.56
2022-09-30T19:10:08.365Z,75790.63
2022-09-30T19:12:36.486Z,75788.69
2022-09-30T19:15:04.897Z,75800.25
2022-09-30T19:17:33.097Z,75800.25
2022-09-30T19:20:01.236Z,75800.25
2022-09-30T19:22:28.466Z,75804.13
2022-09-30T19:24:55.167Z,75807.97
2022-09-30T19:27:26.275Z,75809.91
2022-09-30T19:29:57.217Z,75811.81
2022-09-30T19:32:29.434Z,75807.97
2022-09-30T19:35:05.237Z,75800.25
2022-09-30T19:37:33.472Z,75792.56
2022-09-30T19:40:10.638Z,75800.25
2022-09-30T19:42:39.561Z,75804.13
2022-09-30T19:45:07.302Z,75813.75
2022-09-30T19:47:34.625Z,75807.97
2022-09-30T19:50:01.393Z,75809.91
2022-09-30T19:52:28.258Z,75815.69
2022-09-30T19:54:58.023Z,75807.97
2022-09-30T19:57:28.743Z,75806.03
2022-09-30T19:59:55.465Z,75802.19
2022-09-30T20:02:23.167Z,75806.03
2022-09-30T20:04:52.872Z,75811.81
2022-09-30T20:07:20.116Z,75807.97
2022-09-30T20:09:47.593Z,75807.97
2022-09-30T20:12:14.821Z,75827.22
2022-09-30T20:15:00.099Z,75827.22
2022-09-30T20:17:28.424Z,75827.22
2022-09-30T20:20:13.571Z,75827.22
2022-09-30T20:22:40.397Z,75819.53
2022-09-30T20:25:07.473Z,75821.44
2022-09-30T20:27:34.320Z,75811.81
2022-09-30T20:30:01.068Z,75804.13
2022-09-30T20:32:30.695Z,75811.81
2022-09-30T20:34:58.608Z,75815.69
2022-09-30T20:37:25.638Z,75815.69
2022-09-30T20:39:52.274Z,75809.91
2022-09-30T20:42:18.949Z,75815.69
2022-09-30T20:44:45.610Z,75817.59
2022-09-30T20:47:12.354Z,75821.44
2022-09-30T20:49:39.102Z,75819.53
2022-09-30T20:52:06.039Z,75827.22
2022-09-30T20:54:35.468Z,75827.22
2022-09-30T20:57:07.155Z,75819.53
2022-09-30T20:59:34.415Z,75827.22
2022-09-30T21:02:01.076Z,75834.94
2022-09-30T21:04:28.613Z,75831.09
2022-09-30T21:06:55.295Z,75838.78
2022-09-30T21:09:22.171Z,75838.78
2022-09-30T21:11:49.096Z,75836.88
2022-09-30T21:14:19.424Z,75848.44
2022-09-30T21:16:46.171Z,75846.50
2022-09-30T21:19:12.915Z,75854.22
2022-09-30T21:21:39.514Z,75858.06
2022-09-30T21:24:06.311Z,75865.75
2022-09-30T21:26:33.043Z,75869.63
2022-09-30T21:29:00.001Z,75854.22
2022-09-30T21:31:27.465Z,75865.75
2022-09-30T21:33:56.764Z,75865.75
2022-09-30T21:36:24.302Z,75873.47
2022-09-30T21:38:52.062Z,75873.47
2022-09-30T21:41:19.831Z,75879.25
2022-09-30T21:43:48.722Z,75888.88
2022-09-30T21:46:16.453Z,75881.19
2022-09-30T21:48:43.206Z,75885.03
2022-09-30T21:51:10.500Z,75881.19
2022-09-30T21:53:38.934Z,75892.75
2022-09-30T21:56:07.133Z,75886.97
2022-09-30T21:58:34.279Z,75894.66
2022-09-30T22:01:04.009Z,75892.75
2022-09-30T22:03:37.296Z,75890.81
2022-09-30T22:06:09.276Z,75892.75
2022-09-30T22:08:40.924Z,75885.03
2022-09-30T22:11:11.162Z,75888.88
2022-09-30T22:13:40.880Z,75885.03
2022-09-30T22:16:08.794Z,75885.03
2022-09-30T22:18:35.937Z,75888.88
2022-09-30T22:21:05.653Z,75888.88
2022-09-30T22:23:32.901Z,75877.31
2022-09-30T22:26:17.771Z,75877.31
2022-09-30T22:28:52.711Z,75881.19
2022-09-30T22:31:21.848Z,75881.19
2022-09-30T22:34:09.047Z,75883.09
2022-09-30T22:36:54.362Z,75894.66
2022-09-30T22:39:22.122Z,75900.44
2022-09-30T22:41:50.380Z,75896.59
2022-09-30T22:44:17.800Z,75900.44
2022-09-30T22:46:45.003Z,75871.53
2022-09-30T22:49:11.880Z,75881.19
2022-09-30T22:51:39.116Z,75881.19
2022-09-30T22:54:05.910Z,75881.19
2022-09-30T22:56:32.779Z,75885.03
2022-09-30T22:59:00.535Z,75885.03
2022-09-30T23:01:32.187Z,75892.75
2022-09-30T23:03:59.274Z,75892.75
2022-09-30T23:06:26.005Z,75890.81
2022-09-30T23:08:54.406Z,75890.81
2022-09-30T23:11:23.274Z,75888.88
2022-09-30T23:13:52.567Z,75879.25
2022-09-30T23:16:22.107Z,75881.19
2022-09-30T23:18:48.809Z,75881.19
2022-09-30T23:21:18.434Z,75881.19
2022-09-30T23:23:46.616Z,75879.25
2022-09-30T23:26:15.955Z,75881.19
2022-09-30T23:28:43.529Z,75883.09
2022-09-30T23:31:14.771Z,75885.03
2022-09-30T23:33:49.808Z,75886.97
2022-09-30T23:36:18.906Z,75894.66
2022-09-30T23:38:46.613Z,75892.75
2022-09-30T23:41:14.150Z,75898.53
2022-09-30T23:43:45.823Z,75892.75
2022-09-30T23:46:12.811Z,75894.66
2022-09-30T23:48:39.979Z,75894.66
2022-09-30T23:51:07.835Z,75896.59
2022-09-30T23:53:35.321Z,75883.09
2022-09-30T23:56:06.024Z,75890.81
2022-09-30T23:58:34.054Z,75881.19
